This is the latest recevied weather packets stored in our database for station/object W8LMG. If no packets are shown the sender has not sent any weather packets the latest 10 day(s).
| Time | Temp. | Humidity | Pressure | Rain* | Wind** | Luminosity | Snow |
|---|---|---|---|---|---|---|---|
| 1777908317 | 13.89° C | 55% | 1015.7 hPa | 0 mm | - | 266 W/m² | - |
| 1777908014 | 14.44° C | 52% | 1015.7 hPa | 0 mm | - | 254 W/m² | - |
| 1777907709 | 13.89° C | 54% | 1015.9 hPa | 0 mm | - | 233 W/m² | - |
| 1777907404 | 13.89° C | 51% | 1015.9 hPa | 0 mm | - | 224 W/m² | - |
| 1777907101 | 14.44° C | 50% | 1015.9 hPa | 0 mm | - | 232 W/m² | - |
| 1777906799 | 14.44° C | 55% | 1015.9 hPa | 0 mm | - | 298 W/m² | - |
| 1777906496 | 14.44° C | 51% | 1015.7 hPa | 0 mm | - | 341 W/m² | - |
| 1777906192 | 13.89° C | 51% | 1015.8 hPa | 0 mm | - | 232 W/m² | - |
| 1777905889 | 14.44° C | 51% | 1015.7 hPa | 0 mm | - | 398 W/m² | - |
| 1777905585 | 13.89° C | 53% | 1016 hPa | 0 mm | - | 379 W/m² | - |
| 1777905282 | 13.89° C | 52% | 1015.8 hPa | 0 mm | - | 343 W/m² | - |
| 1777904980 | 13.89° C | 54% | 1015.9 hPa | 0 mm | - | 382 W/m² | - |
| 1777904677 | 13.89° C | 51% | 1016.2 hPa | 0 mm | - | 314 W/m² | - |
| 1777904374 | 13.89° C | 51% | 1015.9 hPa | 0 mm | - | 290 W/m² | - |
| 1777904070 | 13.89° C | 53% | 1016 hPa | 0 mm | - | 262 W/m² | - |
| 1777903767 | 13.89° C | 54% | 1016.1 hPa | 0 mm | - | 306 W/m² | - |
| 1777903464 | 13.33° C | 58% | 1016 hPa | 0 mm | - | 325 W/m² | - |
| 1777903160 | 13.33° C | 57% | 1016.1 hPa | 0 mm | - | 228 W/m² | - |
| 1777902857 | 13.33° C | 54% | 1016.1 hPa | 0 mm | - | 333 W/m² | - |
| 1777902554 | 13.33° C | 54% | 1016 hPa | 0 mm | - | 295 W/m² | - |
| 1777902250 | 13.33° C | 56% | 1015.9 hPa | 0 mm | - | 303 W/m² | - |
| 1777901949 | 12.78° C | 61% | 1015.9 hPa | 0 mm | - | 140 W/m² | - |
| 1777901646 | 12.78° C | 62% | 1015.9 hPa | 0 mm | - | 157 W/m² | - |
| 1777901343 | 11.67° C | 70% | 1016 hPa | 0 mm | - | 406 W/m² | - |
| 1777901041 | 11.67° C | 68% | 1015.9 hPa | 0 mm | - | 194 W/m² | - |
* Rain latest hour (hover to see other rain measurements)
** Current wind speed in m/s (hover to see current wind gust speed)